Time;durP1;ratioP1;P1;durP2;ratioP2;P2;SDS_P1;SDS_P2;PMS_P1;PMS_P2;Temp;Humidity;BMP_temperature;BMP_pressure;BME280_temperature;BME280_humidity;BME280_pressure;Samples;Min_cycle;Max_cycle;Signal;HPM_P1;HPM_P2
2022/01/08 00:02:13;;;;;;;6.38;3.05;;;-4.60;99.90;;;;;;5132250;28;20566;-72
2022/01/08 00:04:39;;;;;;;9.40;4.30;;;-4.50;99.90;;;;;;5110746;27;20191;-71
2022/01/08 00:07:05;;;;;;;7.32;3.17;;;-4.60;99.90;;;;;;5103978;28;20190;-72
2022/01/08 00:09:30;;;;;;;4.90;2.97;;;-4.70;99.90;;;;;;5093214;28;20221;-72
2022/01/08 00:11:56;;;;;;;9.02;3.70;;;-4.70;99.90;;;;;;5092910;28;20179;-72
2022/01/08 00:14:24;;;;;;;5.38;3.28;;;-4.80;99.90;;;;;;5111224;28;20219;-72
2022/01/08 00:16:51;;;;;;;5.70;4.72;;;-5.00;99.90;;;;;;5111494;28;20266;-72
2022/01/08 00:19:17;;;;;;;5.45;3.80;;;-5.10;99.90;;;;;;5111385;28;20188;-72
2022/01/08 00:21:43;;;;;;;5.95;3.55;;;-5.20;99.90;;;;;;5111329;28;20179;-72
2022/01/08 00:24:09;;;;;;;5.90;3.30;;;-5.30;99.90;;;;;;5110721;28;20191;-72
2022/01/08 00:26:34;;;;;;;4.90;3.40;;;-5.40;99.90;;;;;;5093055;28;20189;-73
2022/01/08 00:29:00;;;;;;;6.88;2.80;;;-5.30;99.90;;;;;;5134068;27;20204;-72
2022/01/08 00:31:26;;;;;;;5.45;4.15;;;-5.10;99.90;;;;;;5131288;28;20159;-72
2022/01/08 00:33:53;;;;;;;6.70;3.33;;;-5.00;99.90;;;;;;5130735;28;20162;-72
2022/01/08 00:36:19;;;;;;;4.82;3.08;;;-5.10;99.90;;;;;;5113183;28;20179;-72
2022/01/08 00:38:45;;;;;;;8.93;3.55;;;-5.20;99.90;;;;;;5112605;28;20194;-72
2022/01/08 00:41:11;;;;;;;12.50;4.05;;;-5.30;99.90;;;;;;5113048;28;20178;-72
2022/01/08 00:43:37;;;;;;;4.22;3.40;;;-5.30;99.90;;;;;;5130620;28;20158;-72
2022/01/08 00:46:03;;;;;;;7.30;3.03;;;-5.40;99.90;;;;;;5131392;28;20163;-71
2022/01/08 00:48:29;;;;;;;6.53;3.97;;;-5.50;99.90;;;;;;5113034;28;20260;-72
2022/01/08 00:50:55;;;;;;;7.68;3.75;;;-5.50;99.90;;;;;;5131200;28;20158;-72
2022/01/08 00:53:21;;;;;;;8.57;4.22;;;-5.60;99.90;;;;;;5131138;28;20159;-71
2022/01/08 00:55:46;;;;;;;8.32;3.03;;;-5.70;99.90;;;;;;5112203;28;20209;-71
2022/01/08 00:58:12;;;;;;;16.60;4.68;;;-5.80;99.90;;;;;;5130715;28;20230;-71
2022/01/08 01:00:41;;;;;;;5.07;3.60;;;-5.80;99.90;;;;;;5112689;28;20266;-71
2022/01/08 01:03:07;;;;;;;7.05;3.88;;;-5.80;99.90;;;;;;5112425;28;20198;-71
2022/01/08 01:05:32;;;;;;;9.98;4.57;;;-5.80;99.90;;;;;;5119626;28;20218;-71
2022/01/08 01:07:58;;;;;;;8.73;4.18;;;-5.90;99.90;;;;;;5102374;28;20249;-72
2022/01/08 01:10:25;;;;;;;7.78;4.70;;;-6.00;99.90;;;;;;5110285;28;20238;-71
2022/01/08 01:12:51;;;;;;;6.43;4.07;;;-6.00;99.90;;;;;;5110379;28;20732;-71
2022/01/08 01:15:18;;;;;;;6.30;4.55;;;-6.10;99.90;;;;;;5110261;28;20163;-72
2022/01/08 01:17:46;;;;;;;12.27;4.28;;;-6.20;99.90;;;;;;5092147;28;20163;-72
2022/01/08 01:20:15;;;;;;;7.63;4.05;;;-6.20;99.90;;;;;;5110399;28;20254;-71
2022/01/08 01:23:04;;;;;;;10.20;4.90;;;-6.10;99.90;;;;;;5091879;28;20167;-71
2022/01/08 01:25:36;;;;;;;8.50;4.00;;;-6.10;99.90;;;;;;5091851;28;20187;-71
2022/01/08 01:28:12;;;;;;;4.00;3.30;;;-6.10;99.90;;;;;;5124976;28;20182;-71
2022/01/08 01:47:00;;;;;;;6.15;3.63;;;-5.70;99.90;;;;;;5109728;28;20183;-72
2022/01/08 01:49:27;;;;;;;3.58;2.65;;;-5.60;99.90;;;;;;5108538;28;20155;-73
2022/01/08 01:51:55;;;;;;;11.30;4.05;;;-5.60;99.90;;;;;;5124770;28;20252;-72
2022/01/08 01:54:21;;;;;;;5.35;3.13;;;-5.50;99.90;;;;;;5130127;28;20155;-71
2022/01/08 01:56:46;;;;;;;4.97;3.50;;;-5.40;99.90;;;;;;5130006;28;20200;-73
2022/01/08 01:59:13;;;;;;;4.82;3.40;;;-5.30;99.90;;;;;;5129888;28;20253;-71
2022/01/08 02:01:40;;;;;;;10.95;3.80;;;-5.30;99.90;;;;;;5111539;28;20181;-71
2022/01/08 02:04:05;;;;;;;7.43;3.58;;;-5.30;99.90;;;;;;5129682;28;20202;-72
2022/01/08 02:06:31;;;;;;;10.63;3.45;;;-5.20;99.90;;;;;;5130026;28;20159;-72
2022/01/08 02:08:57;;;;;;;7.22;3.85;;;-5.00;99.90;;;;;;5111584;28;20213;-71
2022/01/08 02:11:23;;;;;;;7.93;3.58;;;-5.00;99.90;;;;;;5129814;28;20171;-72
2022/01/08 02:13:49;;;;;;;9.98;3.85;;;-5.10;99.90;;;;;;5129631;28;20182;-72
2022/01/08 02:16:18;;;;;;;4.35;3.30;;;-5.30;99.90;;;;;;5111158;28;20162;-72
2022/01/08 02:18:45;;;;;;;8.15;3.83;;;-5.40;99.90;;;;;;5129859;28;20236;-72
2022/01/08 02:21:13;;;;;;;5.00;3.53;;;-5.50;99.90;;;;;;5111447;28;20161;-71
2022/01/08 02:23:40;;;;;;;5.95;3.35;;;-5.50;99.90;;;;;;5111436;28;20174;-71
2022/01/08 02:26:08;;;;;;;5.00;3.47;;;-5.50;99.90;;;;;;5129955;28;20151;-71
2022/01/08 02:28:36;;;;;;;5.47;3.67;;;-5.50;99.90;;;;;;5129731;28;20151;-73
2022/01/08 02:31:02;;;;;;;4.03;3.33;;;-5.50;99.90;;;;;;5129713;28;20154;-73
2022/01/08 02:33:28;;;;;;;5.80;3.20;;;-5.40;99.90;;;;;;5129645;28;20196;-73
2022/01/08 02:35:55;;;;;;;7.85;3.55;;;-5.20;99.90;;;;;;5111310;28;20167;-73
2022/01/08 02:38:21;;;;;;;7.53;3.28;;;-5.20;99.90;;;;;;5111410;28;20266;-74
2022/01/08 02:41:01;;;;;;;5.47;2.78;;;-5.10;99.90;;;;;;5129541;28;20163;-73
2022/01/08 02:43:28;;;;;;;6.78;4.10;;;-5.00;99.90;;;;;;5129524;28;20170;-74
2022/01/08 02:45:55;;;;;;;7.68;3.60;;;-4.90;99.90;;;;;;5129420;28;20228;-73
2022/01/08 02:48:21;;;;;;;3.72;3.05;;;-4.80;99.90;;;;;;5111452;28;20178;-73
2022/01/08 02:50:47;;;;;;;3.40;2.58;;;-4.70;99.90;;;;;;5111264;28;20228;-73
2022/01/08 02:53:13;;;;;;;9.93;3.40;;;-4.60;99.90;;;;;;5129573;28;20193;-73
2022/01/08 02:55:39;;;;;;;6.53;3.38;;;-4.60;99.90;;;;;;5111060;28;20194;-73
2022/01/08 02:58:05;;;;;;;8.25;3.72;;;-4.50;99.90;;;;;;5111063;28;20170;-73
2022/01/08 03:00:31;;;;;;;6.68;4.47;;;-4.50;99.90;;;;;;5129425;28;20159;-72
2022/01/08 03:02:57;;;;;;;5.15;3.85;;;-4.40;99.90;;;;;;5111275;28;20185;-72
2022/01/08 03:05:23;;;;;;;6.35;3.42;;;-4.40;99.90;;;;;;5129386;28;20195;-72
2022/01/08 03:07:49;;;;;;;9.02;4.40;;;-4.30;99.90;;;;;;5129497;28;20284;-72
2022/01/08 03:10:17;;;;;;;6.72;3.67;;;-4.30;99.90;;;;;;5111084;28;20190;-72
2022/01/08 03:12:44;;;;;;;10.82;4.13;;;-4.30;99.90;;;;;;5111021;28;20159;-72
2022/01/08 03:15:13;;;;;;;10.63;3.63;;;-4.30;99.90;;;;;;5110897;28;20199;-73
2022/01/08 03:17:40;;;;;;;6.32;3.92;;;-4.30;99.90;;;;;;5111080;28;20193;-73
2022/01/08 03:20:11;;;;;;;4.28;3.35;;;-4.30;99.90;;;;;;5129435;28;20162;-73
2022/01/08 03:22:38;;;;;;;7.28;3.95;;;-4.30;99.90;;;;;;5129270;28;20163;-72
2022/01/08 03:25:06;;;;;;;14.60;4.50;;;-4.40;99.90;;;;;;5129121;28;20194;-72
2022/01/08 03:27:32;;;;;;;11.18;5.43;;;-4.40;99.90;;;;;;5132848;28;20163;-72
2022/01/08 03:29:58;;;;;;;8.25;3.55;;;-4.40;99.90;;;;;;5132927;28;20154;-72
2022/01/08 03:32:24;;;;;;;5.68;3.80;;;-4.40;99.90;;;;;;5132902;28;20165;-72
2022/01/08 03:34:51;;;;;;;9.70;4.60;;;-4.40;99.90;;;;;;5132747;28;20209;-73
2022/01/08 03:37:17;;;;;;;6.60;4.03;;;-4.50;99.90;;;;;;5132678;28;20225;-72
2022/01/08 03:39:43;;;;;;;8.52;3.53;;;-4.50;99.90;;;;;;5132592;28;20222;-72
2022/01/08 03:42:09;;;;;;;7.40;3.78;;;-4.50;99.90;;;;;;5114470;28;20691;-72
2022/01/08 03:44:35;;;;;;;6.95;3.63;;;-4.40;99.90;;;;;;5132482;28;20201;-72
2022/01/08 03:47:23;;;;;;;8.30;3.90;;;-4.50;99.90;;;;;;5114487;28;20167;-73
2022/01/08 03:49:47;;;;;;;6.05;4.05;;;-4.50;99.90;;;;;;5132379;28;20206;-72
2022/01/08 03:52:13;;;;;;;16.08;4.57;;;-4.50;99.90;;;;;;5114202;28;20163;-72
2022/01/08 03:54:40;;;;;;;11.77;4.82;;;-4.50;99.90;;;;;;5114161;28;20228;-72
2022/01/08 03:57:06;;;;;;;10.15;5.78;;;-4.60;99.90;;;;;;5132414;28;20159;-72
2022/01/08 03:59:32;;;;;;;8.70;4.25;;;-4.60;99.90;;;;;;5113853;28;20247;-72
2022/01/08 04:01:58;;;;;;;9.43;5.72;;;-4.60;99.90;;;;;;5132436;28;20190;-73
2022/01/08 04:04:24;;;;;;;11.07;5.85;;;-4.50;99.90;;;;;;5132166;28;20255;-72
2022/01/08 04:06:51;;;;;;;8.90;5.80;;;-4.40;99.90;;;;;;5132024;28;20155;-72
2022/01/08 04:09:17;;;;;;;12.05;6.68;;;-4.50;99.90;;;;;;5132202;28;20562;-73
2022/01/08 04:11:44;;;;;;;8.23;5.65;;;-4.40;99.90;;;;;;5113943;28;20163;-72
2022/01/08 04:14:12;;;;;;;12.35;6.45;;;-4.40;99.90;;;;;;5117803;27;20237;-72
2022/01/08 04:16:42;;;;;;;13.90;6.18;;;-4.40;99.90;;;;;;5111498;28;20174;-72
2022/01/08 04:19:08;;;;;;;15.70;6.63;;;-4.30;99.90;;;;;;5111530;28;20160;-72
2022/01/08 04:24:07;;;;;;;9.52;5.18;;;-4.20;99.90;;;;;;5111316;28;20286;-73
2022/01/08 04:26:33;;;;;;;11.10;6.03;;;-4.20;99.90;;;;;;5093154;28;20189;-72
2022/01/08 04:28:59;;;;;;;11.85;6.05;;;-4.20;99.90;;;;;;5093156;28;20596;-72
2022/01/08 04:31:25;;;;;;;7.28;4.95;;;-4.10;99.90;;;;;;5111364;28;20155;-72
2022/01/08 04:33:52;;;;;;;11.85;5.82;;;-4.10;99.90;;;;;;5111260;28;20556;-72
2022/01/08 04:36:19;;;;;;;9.38;5.10;;;-4.00;99.90;;;;;;5111342;28;20159;-72
2022/01/08 04:38:45;;;;;;;8.63;5.60;;;-4.10;99.90;;;;;;5110694;28;20211;-72
2022/01/08 04:41:11;;;;;;;11.48;5.35;;;-4.10;99.90;;;;;;5092928;28;20163;-72
2022/01/08 04:43:42;;;;;;;12.18;5.85;;;-4.00;99.90;;;;;;5092515;28;20213;-72
2022/01/08 04:46:08;;;;;;;8.13;5.38;;;-4.00;99.90;;;;;;5092809;28;20182;-72
2022/01/08 04:48:34;;;;;;;7.57;4.28;;;-4.00;99.90;;;;;;5110895;28;20159;-72
2022/01/08 04:51:00;;;;;;;9.85;6.65;;;-4.00;99.90;;;;;;5110958;28;20892;-71
2022/01/08 04:53:26;;;;;;;8.55;5.25;;;-3.90;99.90;;;;;;5110818;28;20202;-72
2022/01/08 04:55:52;;;;;;;8.02;5.45;;;-3.90;99.90;;;;;;5110839;28;20159;-72
2022/01/08 04:58:18;;;;;;;15.85;6.13;;;-3.90;99.90;;;;;;5092354;28;20286;-72
2022/01/08 05:00:44;;;;;;;8.77;4.90;;;-4.00;99.90;;;;;;5110736;28;20159;-72
2022/01/08 05:03:10;;;;;;;13.60;5.25;;;-4.00;99.90;;;;;;5092350;28;20195;-72
2022/01/08 05:05:36;;;;;;;8.93;5.07;;;-4.00;99.90;;;;;;5092349;28;20199;-72
2022/01/08 05:08:01;;;;;;;10.50;5.90;;;-4.10;99.90;;;;;;5110583;28;20190;-72
2022/01/08 05:10:33;;;;;;;14.60;5.55;;;-4.20;99.90;;;;;;5092295;28;20167;-72
2022/01/08 05:13:04;;;;;;;8.15;5.40;;;-4.30;99.90;;;;;;5110258;28;20218;-72
2022/01/08 05:15:33;;;;;;;14.18;5.18;;;-4.40;99.90;;;;;;5110421;28;20168;-72
2022/01/08 05:17:59;;;;;;;11.38;5.20;;;-4.40;99.90;;;;;;5110429;28;20155;-71
2022/01/08 05:20:30;;;;;;;12.40;6.10;;;-4.50;99.90;;;;;;5110355;28;20171;-72
2022/01/08 05:23:00;;;;;;;9.23;5.22;;;-4.60;99.90;;;;;;5110225;28;20170;-72
2022/01/08 05:25:27;;;;;;;7.35;4.70;;;-4.70;99.90;;;;;;5110172;28;20217;-71
2022/01/08 05:27:54;;;;;;;8.05;5.00;;;-4.60;99.90;;;;;;5110174;28;20203;-72
2022/01/08 05:30:22;;;;;;;13.40;6.72;;;-4.70;99.90;;;;;;5091886;28;20237;-72
2022/01/08 05:32:49;;;;;;;13.15;6.93;;;-4.70;99.90;;;;;;5110013;28;20164;-72
2022/01/08 05:35:16;;;;;;;24.65;10.15;;;-4.60;99.90;;;;;;5110016;28;20162;-71
2022/01/08 05:37:43;;;;;;;16.30;7.70;;;-4.70;99.90;;;;;;5110051;28;20159;-71
2022/01/08 05:40:10;;;;;;;13.65;6.05;;;-4.80;99.90;;;;;;5109998;28;20166;-72
2022/01/08 05:42:37;;;;;;;13.52;6.55;;;-4.80;99.90;;;;;;5109951;28;20159;-72
2022/01/08 05:45:03;;;;;;;16.45;8.15;;;-4.80;99.90;;;;;;5109630;28;20265;-72
2022/01/08 05:47:32;;;;;;;14.10;6.72;;;-4.80;99.90;;;;;;5109831;28;20159;-72
2022/01/08 05:49:58;;;;;;;10.50;7.03;;;-4.90;99.90;;;;;;5108844;28;20164;-72
2022/01/08 05:52:25;;;;;;;13.70;5.50;;;-4.90;99.90;;;;;;5091755;28;20198;-72
2022/01/08 05:54:51;;;;;;;9.57;4.85;;;-4.90;99.90;;;;;;5109646;28;20690;-72
2022/01/08 05:57:17;;;;;;;9.18;6.20;;;-4.90;99.90;;;;;;5109606;28;20235;-72
2022/01/08 05:59:43;;;;;;;11.45;5.07;;;-5.00;99.90;;;;;;5091269;28;20223;-72
2022/01/08 06:02:09;;;;;;;8.05;5.43;;;-5.00;99.90;;;;;;5109736;28;20639;-71
2022/01/08 06:04:36;;;;;;;10.05;6.13;;;-5.10;99.90;;;;;;5091310;28;20232;-72
2022/01/08 06:07:03;;;;;;;10.90;5.60;;;-5.10;99.90;;;;;;5109627;28;20635;-71
2022/01/08 06:09:29;;;;;;;11.35;5.88;;;-5.20;99.90;;;;;;5091391;28;20231;-72
2022/01/08 06:11:55;;;;;;;18.35;6.57;;;-5.20;99.90;;;;;;5109683;28;20160;-72
2022/01/08 06:14:21;;;;;;;12.00;5.32;;;-5.30;99.90;;;;;;5109435;28;20183;-72
2022/01/08 06:16:48;;;;;;;14.98;7.43;;;-5.20;99.90;;;;;;5091291;28;20206;-72
2022/01/08 06:19:15;;;;;;;17.83;5.65;;;-5.20;99.90;;;;;;5091184;28;20186;-72
2022/01/08 06:21:42;;;;;;;8.75;5.65;;;-5.20;99.90;;;;;;5109502;28;20166;-71
2022/01/08 06:24:09;;;;;;;14.73;7.53;;;-5.20;99.90;;;;;;5091015;28;20206;-72
2022/01/08 06:26:36;;;;;;;14.13;6.80;;;-5.10;99.90;;;;;;5108102;28;20198;-72
2022/01/08 06:29:02;;;;;;;8.93;7.28;;;-5.20;99.90;;;;;;5109533;28;20646;-72
2022/01/08 06:31:29;;;;;;;9.65;5.72;;;-5.30;99.90;;;;;;5109341;28;20163;-71
2022/01/08 06:33:55;;;;;;;11.90;6.95;;;-5.40;99.90;;;;;;5109232;28;20195;-72
2022/01/08 06:36:23;;;;;;;10.45;5.40;;;-5.40;99.90;;;;;;5091073;28;20176;-72
2022/01/08 06:38:50;;;;;;;14.25;6.07;;;-5.50;99.90;;;;;;5109267;28;20168;-72
2022/01/08 06:41:17;;;;;;;12.85;6.40;;;-5.60;99.90;;;;;;5109401;28;20174;-71
2022/01/08 06:43:43;;;;;;;9.55;6.57;;;-5.60;99.90;;;;;;5107507;28;20195;-72
2022/01/08 06:46:09;;;;;;;10.15;6.90;;;-5.50;99.90;;;;;;5090828;28;20186;-72
2022/01/08 06:48:35;;;;;;;7.47;4.25;;;-5.50;99.90;;;;;;5109132;28;20182;-72
2022/01/08 06:51:02;;;;;;;10.10;6.45;;;-5.40;99.90;;;;;;5109119;28;20613;-71
2022/01/08 06:53:28;;;;;;;10.80;7.00;;;-5.40;99.90;;;;;;5090970;28;20690;-71
2022/01/08 06:55:55;;;;;;;7.70;5.18;;;-5.30;99.90;;;;;;5109067;28;20156;-71
2022/01/08 06:58:21;;;;;;;20.17;7.03;;;-5.20;99.90;;;;;;5090915;28;20225;-72
2022/01/08 07:00:47;;;;;;;10.30;5.70;;;-5.20;99.90;;;;;;5109947;28;20163;-72
2022/01/08 07:03:14;;;;;;;15.70;7.03;;;-5.10;99.90;;;;;;5111731;28;20285;-72
2022/01/08 07:05:40;;;;;;;9.93;6.30;;;-5.00;99.90;;;;;;5112913;28;20242;-72
2022/01/08 07:08:07;;;;;;;14.68;7.22;;;-5.00;99.90;;;;;;5112839;28;20166;-71
2022/01/08 07:10:33;;;;;;;11.82;7.60;;;-4.90;99.90;;;;;;5094570;28;20202;-71
2022/01/08 07:13:00;;;;;;;9.90;5.85;;;-4.70;99.90;;;;;;5112690;28;20183;-71
2022/01/08 07:15:26;;;;;;;10.00;6.28;;;-4.60;99.90;;;;;;5112712;28;20156;-72
2022/01/08 07:17:52;;;;;;;12.80;6.30;;;-4.40;99.90;;;;;;5112744;28;20715;-72
2022/01/08 07:20:18;;;;;;;15.07;7.10;;;-4.30;99.90;;;;;;5112950;28;20159;-71
2022/01/08 07:22:44;;;;;;;11.93;6.75;;;-4.20;99.90;;;;;;5112317;28;20193;-71
2022/01/08 07:25:11;;;;;;;11.90;6.05;;;-4.10;99.90;;;;;;5094081;28;20202;-73
2022/01/08 07:27:38;;;;;;;9.52;6.13;;;-4.00;99.90;;;;;;5112492;28;20238;-72
2022/01/08 07:30:06;;;;;;;10.13;6.38;;;-3.90;99.90;;;;;;5101187;28;20236;-72
2022/01/08 07:32:32;;;;;;;10.65;5.88;;;-3.80;99.90;;;;;;5112378;28;20184;-72
2022/01/08 07:34:58;;;;;;;10.70;6.22;;;-3.80;99.90;;;;;;5111005;28;20199;-71
2022/01/08 07:37:24;;;;;;;9.43;6.25;;;-3.80;99.90;;;;;;5093944;28;20211;-72
2022/01/08 07:39:50;;;;;;;13.30;7.55;;;-3.70;99.90;;;;;;5112082;28;20182;-71
2022/01/08 07:42:17;;;;;;;13.60;7.20;;;-3.60;99.90;;;;;;5112226;28;20282;-71
2022/01/08 07:44:43;;;;;;;15.35;6.38;;;-3.60;99.90;;;;;;5110743;28;20203;-72
2022/01/08 07:47:09;;;;;;;14.85;6.95;;;-3.50;99.90;;;;;;5094086;28;20651;-71
2022/01/08 07:49:35;;;;;;;15.52;7.45;;;-3.40;99.90;;;;;;5112120;28;20160;-72
2022/01/08 07:52:00;;;;;;;16.38;8.43;;;-3.40;99.90;;;;;;5093733;28;20178;-72
2022/01/08 07:54:26;;;;;;;15.00;7.32;;;-3.20;99.90;;;;;;5093567;28;20222;-72
2022/01/08 07:56:52;;;;;;;12.95;6.75;;;-3.20;99.90;;;;;;5093450;28;20186;-72
2022/01/08 07:59:18;;;;;;;13.75;7.85;;;-3.30;99.90;;;;;;5111667;28;20231;-72
2022/01/08 08:01:44;;;;;;;19.60;8.48;;;-3.20;99.90;;;;;;5111851;28;20170;-72
2022/01/08 08:04:10;;;;;;;10.93;6.90;;;-3.20;99.90;;;;;;5111616;28;20198;-72
2022/01/08 08:06:47;;;;;;;12.95;6.65;;;-3.20;99.90;;;;;;5111702;28;20143;-72
2022/01/08 08:09:14;;;;;;;12.98;6.68;;;-3.10;99.90;;;;;;5111742;28;20158;-72
2022/01/08 08:11:41;;;;;;;10.23;7.40;;;-3.00;99.90;;;;;;5111500;28;20148;-72
2022/01/08 08:14:08;;;;;;;8.30;5.97;;;-2.80;99.90;;;;;;5110698;28;20193;-72
2022/01/08 08:16:33;;;;;;;18.00;7.60;;;-2.60;99.90;;;;;;5111743;28;20175;-73
2022/01/08 08:19:00;;;;;;;13.77;6.88;;;-2.40;99.90;;;;;;5111523;28;20159;-72
2022/01/08 08:21:26;;;;;;;16.67;7.20;;;-2.30;99.90;;;;;;5111484;28;20164;-72
2022/01/08 08:23:52;;;;;;;14.30;7.55;;;-2.20;99.90;;;;;;5111461;28;20655;-73
2022/01/08 08:26:19;;;;;;;14.15;7.68;;;-2.20;99.90;;;;;;5110287;28;20238;-72
2022/01/08 08:28:45;;;;;;;12.32;7.22;;;-2.00;99.90;;;;;;5093183;28;20230;-72
2022/01/08 08:31:11;;;;;;;12.23;7.30;;;-2.00;99.90;;;;;;5092945;28;20312;-73
2022/01/08 08:33:38;;;;;;;13.20;7.30;;;-2.10;99.90;;;;;;5092731;28;20191;-73
2022/01/08 08:36:05;;;;;;;13.27;6.00;;;-2.00;99.90;;;;;;5093021;28;20167;-73
2022/01/08 08:38:31;;;;;;;11.32;7.32;;;-1.60;99.90;;;;;;5110859;28;20223;-73
2022/01/08 08:40:57;;;;;;;12.45;6.82;;;-1.20;99.90;;;;;;5110912;28;20246;-73
2022/01/08 08:43:23;;;;;;;13.95;6.50;;;-1.00;99.90;;;;;;5110640;28;20202;-72
2022/01/08 08:45:50;;;;;;;12.38;6.38;;;-1.00;99.90;;;;;;5110770;28;20264;-73
2022/01/08 08:48:17;;;;;;;14.40;8.05;;;-0.70;99.90;;;;;;5092750;28;20174;-72
2022/01/08 08:50:44;;;;;;;9.88;5.88;;;-0.80;99.90;;;;;;5110946;28;20151;-72
2022/01/08 08:53:11;;;;;;;8.82;6.35;;;-0.70;99.90;;;;;;5110704;28;20276;-72
2022/01/08 08:55:37;;;;;;;11.85;6.97;;;-0.50;99.90;;;;;;5110772;28;20213;-72
2022/01/08 08:58:03;;;;;;;15.75;7.60;;;-0.30;99.90;;;;;;5110590;28;20183;-73
2022/01/08 09:00:29;;;;;;;10.65;6.65;;;-0.30;99.90;;;;;;5110653;28;20190;-73
2022/01/08 09:02:56;;;;;;;12.10;6.60;;;-0.50;99.90;;;;;;5092105;28;20171;-73
2022/01/08 09:05:22;;;;;;;11.25;6.47;;;-0.30;99.90;;;;;;5109207;28;20214;-72
2022/01/08 09:07:48;;;;;;;12.00;6.90;;;-0.30;99.90;;;;;;5110218;28;20159;-73
2022/01/08 09:10:15;;;;;;;9.57;6.10;;;-0.20;99.90;;;;;;5112469;28;21358;-73
2022/01/08 09:12:42;;;;;;;9.82;6.07;;;0.00;99.90;;;;;;5119058;28;20186;-73
2022/01/08 09:15:10;;;;;;;11.95;6.55;;;0.10;99.90;;;;;;5118214;28;20194;-73
2022/01/08 09:17:39;;;;;;;23.05;8.20;;;0.20;99.90;;;;;;5110344;28;20159;-73
2022/01/08 09:20:07;;;;;;;9.32;7.32;;;0.60;99.90;;;;;;5091719;28;20550;-72
2022/01/08 09:22:32;;;;;;;14.65;7.43;;;1.00;99.90;;;;;;5119704;28;20174;-73
2022/01/08 09:24:59;;;;;;;12.93;6.95;;;1.10;99.90;;;;;;5109984;28;20234;-73
2022/01/08 09:27:25;;;;;;;12.30;7.40;;;1.30;99.90;;;;;;5110324;28;20612;-73
2022/01/08 09:29:50;;;;;;;18.88;8.77;;;1.50;99.90;;;;;;5110074;28;20190;-73
2022/01/08 09:32:19;;;;;;;18.70;8.43;;;1.30;99.90;;;;;;5091830;28;20167;-72
2022/01/08 09:34:45;;;;;;;12.48;7.78;;;1.20;99.90;;;;;;5109911;28;20198;-72
2022/01/08 09:37:11;;;;;;;20.48;7.75;;;1.20;99.90;;;;;;5097112;28;20202;-72
2022/01/08 09:39:39;;;;;;;14.27;7.40;;;1.40;99.90;;;;;;5097829;28;20171;-73
2022/01/08 09:42:08;;;;;;;13.90;7.28;;;1.90;99.90;;;;;;5109929;28;20171;-73
2022/01/08 09:44:37;;;;;;;13.02;7.00;;;2.20;99.90;;;;;;5109588;28;20284;-73
2022/01/08 09:47:05;;;;;;;12.43;7.00;;;2.30;99.90;;;;;;5098217;28;20195;-73
2022/01/08 09:49:32;;;;;;;13.68;7.50;;;2.40;99.90;;;;;;5109695;28;20155;-73
2022/01/08 09:52:00;;;;;;;13.20;6.80;;;2.00;99.90;;;;;;5114430;28;20175;-72
2022/01/08 09:54:27;;;;;;;10.88;5.95;;;1.50;99.90;;;;;;5115905;28;20277;-73
2022/01/08 09:56:54;;;;;;;14.93;7.65;;;0.90;99.90;;;;;;5127334;28;20198;-73
2022/01/08 09:59:21;;;;;;;10.65;7.00;;;0.70;99.90;;;;;;5115317;28;20242;-73
2022/01/08 10:01:58;;;;;;;10.45;6.28;;;0.90;99.90;;;;;;5109550;28;20204;-73
2022/01/08 10:04:42;;;;;;;6.95;4.10;;;1.00;99.90;;;;;;5120195;28;20201;-73
2022/01/08 10:07:26;;;;;;;9.40;5.78;;;0.70;99.90;;;;;;5110470;28;20570;-73
2022/01/08 10:09:58;;;;;;;16.85;5.68;;;0.50;99.90;;;;;;5111485;28;20172;-73
2022/01/08 10:12:54;;;;;;;10.45;6.72;;;0.40;99.90;;;;;;5109085;28;20174;-73
2022/01/08 10:18:26;;;;;;;9.95;5.63;;;0.60;99.90;;;;;;5109410;28;20284;-73
2022/01/08 10:20:55;;;;;;;12.00;6.53;;;0.40;99.90;;;;;;5123380;28;20179;-73
2022/01/08 10:23:27;;;;;;;10.70;5.15;;;0.20;99.90;;;;;;5111793;28;20202;-73
2022/01/08 10:26:07;;;;;;;8.90;5.32;;;0.20;99.90;;;;;;5096194;28;20248;-74
2022/01/08 10:28:51;;;;;;;9.98;6.15;;;0.10;99.90;;;;;;5090750;28;20159;-73
2022/01/08 10:31:23;;;;;;;11.82;6.82;;;0.20;99.90;;;;;;5107749;28;20179;-73
2022/01/08 10:33:57;;;;;;;10.77;6.18;;;0.30;99.90;;;;;;5129072;28;20201;-74
2022/01/08 10:36:30;;;;;;;12.10;6.95;;;0.60;99.90;;;;;;5131418;28;20146;-73
2022/01/08 10:38:59;;;;;;;10.32;6.90;;;0.70;99.90;;;;;;5114744;28;20175;-73
2022/01/08 10:41:26;;;;;;;12.50;7.18;;;1.00;99.90;;;;;;5130018;28;20190;-73
2022/01/08 10:44:17;;;;;;;15.50;6.38;;;1.00;99.90;;;;;;5114754;28;20187;-73
2022/01/08 10:47:07;;;;;;;8.65;5.45;;;1.10;99.90;;;;;;5133538;28;20162;-73
2022/01/08 10:49:36;;;;;;;10.10;6.20;;;1.30;99.90;;;;;;5117487;28;20175;-74
2022/01/08 10:52:06;;;;;;;9.10;5.85;;;1.60;99.90;;;;;;5107421;28;20262;-73
2022/01/08 10:54:37;;;;;;;12.50;6.10;;;1.60;99.90;;;;;;5122041;28;20208;-73
2022/01/08 10:57:07;;;;;;;14.70;6.95;;;1.40;99.90;;;;;;5131199;28;20175;-73
2022/01/08 10:59:35;;;;;;;8.45;5.97;;;1.50;99.90;;;;;;5111330;28;20222;-73
2022/01/08 11:02:03;;;;;;;10.52;6.25;;;1.70;99.90;;;;;;5112767;28;20152;-73
2022/01/08 11:04:34;;;;;;;11.18;6.47;;;1.60;99.90;;;;;;5094205;28;20199;-73
2022/01/08 11:07:11;;;;;;;13.38;7.75;;;1.60;99.90;;;;;;5094399;28;20167;-72
2022/01/08 11:09:39;;;;;;;11.45;6.93;;;1.60;99.90;;;;;;5112310;28;20148;-73
2022/01/08 11:12:08;;;;;;;10.30;6.13;;;1.30;99.90;;;;;;5116942;28;20171;-73
2022/01/08 11:17:51;;;;;;;11.88;6.20;;;1.20;99.90;;;;;;5111788;28;20711;-74
2022/01/08 11:20:26;;;;;;;8.32;5.93;;;1.00;99.90;;;;;;5008982;28;20199;-73
2022/01/08 11:22:57;;;;;;;13.90;6.53;;;1.10;99.90;;;;;;5003097;28;20360;-72
2022/01/08 11:25:27;;;;;;;15.02;6.90;;;1.00;99.90;;;;;;5009970;28;20203;-73
2022/01/08 11:28:03;;;;;;;14.32;6.93;;;1.20;99.90;;;;;;4993919;28;20197;-72
2022/01/08 11:30:35;;;;;;;13.15;7.53;;;1.20;99.90;;;;;;4993209;28;20529;-72
2022/01/08 11:33:12;;;;;;;13.30;6.53;;;1.80;99.90;;;;;;5011380;28;20183;-72
2022/01/08 11:35:41;;;;;;;10.23;5.60;;;1.90;99.90;;;;;;5010062;28;20206;-72
2022/01/08 11:38:08;;;;;;;12.70;5.40;;;2.10;99.90;;;;;;4993730;28;20325;-72
2022/01/08 11:40:43;;;;;;;13.95;5.72;;;2.70;99.90;;;;;;5017714;28;20182;-72
2022/01/08 11:43:12;;;;;;;13.48;5.75;;;3.40;99.90;;;;;;5012743;28;20193;-73
2022/01/08 11:45:47;;;;;;;10.57;4.97;;;4.60;99.90;;;;;;5029295;28;20218;-73
2022/01/08 11:48:16;;;;;;;7.47;4.88;;;5.60;99.90;;;;;;5007592;28;20212;-73
2022/01/08 11:50:53;;;;;;;15.48;6.82;;;6.60;99.90;;;;;;5012287;28;20189;-73
2022/01/08 11:53:24;;;;;;;11.25;5.80;;;7.70;99.90;;;;;;5009067;28;20205;-73
2022/01/08 11:55:56;;;;;;;13.55;5.47;;;7.50;99.90;;;;;;5069884;28;20203;-73
2022/01/08 11:58:33;;;;;;;11.63;4.60;;;6.50;99.90;;;;;;5115258;28;20586;-73
2022/01/08 12:01:05;;;;;;;7.22;5.00;;;5.70;99.90;;;;;;5111935;28;20151;-73
2022/01/08 12:03:33;;;;;;;8.13;5.63;;;6.00;99.90;;;;;;5109919;28;20163;-73
2022/01/08 12:06:18;;;;;;;10.98;5.90;;;5.70;99.90;;;;;;5110051;28;20205;-73
2022/01/08 12:08:47;;;;;;;10.82;5.55;;;4.40;99.90;;;;;;5113007;28;20285;-74
2022/01/08 12:11:13;;;;;;;7.13;5.35;;;5.00;99.90;;;;;;5095920;28;20179;-73
2022/01/08 12:13:47;;;;;;;13.35;6.82;;;6.30;99.90;;;;;;5111242;28;20225;-72
2022/01/08 12:16:32;;;;;;;10.27;5.68;;;6.70;99.90;;;;;;5112751;28;20226;-73
2022/01/08 12:19:00;;;;;;;13.02;5.40;;;7.50;99.90;;;;;;5121968;27;20171;-73
2022/01/08 12:21:40;;;;;;;8.98;5.15;;;7.80;99.90;;;;;;5113317;28;20627;-73
2022/01/08 12:24:25;;;;;;;11.18;5.75;;;7.60;99.90;;;;;;5131349;28;20156;-74
2022/01/08 12:26:55;;;;;;;15.95;6.35;;;7.10;99.90;;;;;;5131093;28;20206;-74
2022/01/08 12:29:42;;;;;;;11.73;6.20;;;7.00;99.90;;;;;;5114808;28;20168;-74
2022/01/08 12:32:26;;;;;;;10.50;5.18;;;7.20;99.90;;;;;;5119884;28;20198;-73
2022/01/08 12:35:01;;;;;;;12.32;5.78;;;7.30;99.90;;;;;;5103598;28;20178;-73
2022/01/08 12:37:41;;;;;;;15.88;5.40;;;6.50;99.90;;;;;;5110676;28;20230;-73
2022/01/08 12:40:10;;;;;;;10.15;5.20;;;5.60;99.90;;;;;;5109607;28;20195;-73
2022/01/08 12:42:44;;;;;;;11.88;5.82;;;4.40;99.90;;;;;;5111827;28;20252;-73
2022/01/08 12:45:15;;;;;;;9.45;5.10;;;4.10;99.90;;;;;;5130339;28;20192;-73
2022/01/08 12:47:54;;;;;;;11.70;5.40;;;4.10;99.90;;;;;;5112932;27;20265;-73
2022/01/08 12:50:39;;;;;;;9.20;4.88;;;3.60;99.90;;;;;;5132147;27;20169;-73
2022/01/08 12:53:05;;;;;;;14.25;5.45;;;3.30;99.90;;;;;;5150098;27;20234;-72
2022/01/08 12:55:32;;;;;;;8.90;4.03;;;3.10;99.90;;;;;;5132787;27;20177;-72
2022/01/08 12:57:58;;;;;;;6.50;3.88;;;2.90;99.90;;;;;;5151067;27;20199;-72
2022/01/08 13:00:25;;;;;;;7.07;4.35;;;2.70;99.90;;;;;;5151213;27;20199;-72
2022/01/08 13:02:51;;;;;;;7.55;4.85;;;2.60;99.90;;;;;;5136674;27;20599;-73
2022/01/08 13:05:18;;;;;;;8.98;4.30;;;2.70;99.90;;;;;;5130900;28;20227;-73
2022/01/08 13:07:50;;;;;;;6.28;4.32;;;2.90;99.90;;;;;;5108794;28;20211;-73
2022/01/08 13:10:17;;;;;;;7.40;4.43;;;2.80;99.90;;;;;;5110216;28;20620;-73
2022/01/08 13:13:03;;;;;;;7.93;3.88;;;2.60;99.90;;;;;;5110110;28;20173;-73
2022/01/08 13:15:31;;;;;;;8.52;4.05;;;2.40;99.90;;;;;;5119585;28;20170;-73
2022/01/08 13:18:20;;;;;;;5.70;4.05;;;2.40;99.90;;;;;;5111275;28;20198;-73